Terminal Aerodrome Forecast
Issued by NWS

Home | Current Version | Previous Version | Text Only | Print | Product List | Glossary On
Versions: 1 2 3 4 5 6 7 8 9 10 11 12 13
000
FTUS44 KOUN 222331
TAFGAG
TAF
KGAG 222331Z 2300/2324 10014KT P6SM SCT040
     FM230600 16013KT P6SM OVC007
     FM230900 17015G25KT P6SM BKN012 OVC250
     FM231600 18025G35KT P6SM BKN100
      TEMPO 2319/2323 19030G38KT=

USA.gov is the U.S. government's official web portal to all federal, state and local government web resources and services.